KSTS

Charles M Schulz - Sonoma County Airport

Santa Rosa, California, USA
KSTS 182146Z 1822/1918 00000KT 3SM BR BKN008 OVC015 TEMPO 1822/1902 2SM -RA BR OVC003 FM190200 VRB04KT 2SM BR OVC005 FM190500 00000KT 1/2SM FG VV002
Issued Valid From Valid To
Dec-18 @ 21:46 UTC
(2 hours ago)
Dec-18 @ 22:00 UTC
(an hour ago)
Dec-19 @ 18:00 UTC
(in 19 hours)
Dec-18 @ 22:00 to Dec-19 @ 02:00
KSTS 182146Z 1822/1918 00000KT 3SM BR BKN008 OVC015
Visibility Clouds Conditions
3 miles
  • Broken at 800' AGL
  • Overcast at 1,500' AGL
  • Mist
Temporary Dec-18 @ 22:00 to Dec-19 @ 02:00
TEMPO 1822/1902 2SM -RA BR OVC003
Visibility Clouds Conditions
2 miles
  • Overcast at 300' AGL
  • Light Rain
  • Mist
From Dec-19 @ 02:00 to Dec-19 @ 05:00
FM190200 VRB04KT 2SM BR OVC005
Wind Visibility Clouds Conditions
Variable at 4 knots 2 miles
  • Overcast at 500' AGL
  • Mist
From Dec-19 @ 05:00 to Dec-19 @ 18:00
FM190500 00000KT 1/2SM FG VV002
Visibility Clouds Conditions
1/2 miles
  • Vertical visibility at 200' AGL
  • Fog
KSTS 182146Z 1822/1918 00000KT 3SM BR BKN008 OVC015 TEMPO 1822/1902 2SM -RA BR OVC003 FM190200 VRB04KT 2SM BR OVC005 FM190500 00000KT 1/2SM FG VV002
Issued Dec-18 @ 21:46 UTC
(2 hours ago)
Valid From Dec-18 @ 22:00 UTC
(an hour ago)
Valid To Dec-19 @ 18:00 UTC
(in 19 hours)
Dec-18 @ 22:00 - Dec-19 @ 02:00
Clouds
  • Broken at 800' AGL
  • Overcast at 1,500' AGL
Conditions
  • Mist
Temporary Dec-18 @ 22:00 - Dec-19 @ 02:00
Clouds
  • Overcast at 300' AGL
Conditions
  • Light Rain
  • Mist
From Dec-19 @ 02:00 - Dec-19 @ 05:00
Wind Visibility
Variable at 4 knots 2 miles
Clouds
  • Overcast at 500' AGL
Conditions
  • Mist
From Dec-19 @ 05:00 - Dec-19 @ 18:00
Clouds
  • Vertical visibility at 200' AGL
Conditions
  • Fog